createdAt,value
2022-08-28T00:00:42.516Z,41.25
2022-08-28T00:03:13.328Z,40.70
2022-08-28T00:05:41.792Z,40.35
2022-08-28T00:08:11.228Z,41.63
2022-08-28T00:10:42.077Z,39.03
2022-08-28T00:13:15.585Z,39.53
2022-08-28T00:15:42.609Z,39.90
2022-08-28T00:18:09.943Z,40.28
2022-08-28T00:20:38.758Z,37.45
2022-08-28T00:23:07.143Z,36.10
2022-08-28T00:25:35.061Z,36.47
2022-08-28T00:28:08.848Z,35.88
2022-08-28T00:30:46.841Z,35.83
2022-08-28T00:33:27.454Z,36.00
2022-08-28T00:35:55.878Z,35.38
2022-08-28T00:38:24.394Z,36.83
2022-08-28T00:40:55.743Z,36.17
2022-08-28T00:43:35.619Z,37.70
2022-08-28T00:46:05.844Z,37.03
2022-08-28T00:48:33.120Z,37.13
2022-08-28T00:51:21.752Z,39.92
2022-08-28T00:53:48.801Z,39.72
2022-08-28T00:56:18.667Z,38.08
2022-08-28T00:58:48.286Z,39.65
2022-08-28T01:01:16.013Z,39.78
2022-08-28T01:03:44.051Z,39.92
2022-08-28T01:06:14.907Z,37.78
2022-08-28T01:08:50.646Z,39.78
2022-08-28T01:11:19.702Z,40.67
2022-08-28T01:13:48.717Z,38.38
2022-08-28T01:16:18.769Z,38.70
2022-08-28T01:18:48.089Z,37.15
2022-08-28T01:21:32.648Z,39.55
2022-08-28T01:24:09.277Z,37.42
2022-08-28T01:26:38.532Z,37.30
2022-08-28T01:29:08.649Z,39.53
2022-08-28T01:31:36.770Z,36.58
2022-08-28T01:34:05.024Z,40.00
2022-08-28T01:36:32.387Z,36.90
2022-08-28T01:39:20.899Z,38.63
2022-08-28T01:41:52.251Z,36.10
2022-08-28T01:44:24.956Z,36.92
2022-08-28T01:46:54.570Z,37.13
2022-08-28T01:49:23.326Z,36.38
2022-08-28T01:51:50.379Z,36.58
2022-08-28T01:54:20.164Z,35.88
2022-08-28T01:56:47.959Z,34.67
2022-08-28T01:59:15.551Z,36.90
2022-08-28T02:01:43.649Z,35.05
2022-08-28T02:04:11.661Z,34.45
2022-08-28T02:06:39.197Z,35.35
2022-08-28T02:09:13.494Z,39.50
2022-08-28T02:11:46.571Z,42.15
2022-08-28T02:14:14.975Z,37.58
2022-08-28T02:16:41.987Z,35.13
2022-08-28T02:19:08.968Z,37.38
2022-08-28T02:21:35.952Z,37.90
2022-08-28T02:24:05.097Z,38.88
2022-08-28T02:26:33.615Z,39.10
2022-08-28T02:29:00.977Z,38.03
2022-08-28T02:31:28.503Z,41.10
2022-08-28T02:33:56.096Z,40.42
2022-08-28T02:36:24.122Z,40.72
2022-08-28T02:38:57.401Z,40.53
2022-08-28T02:41:25.249Z,42.03
2022-08-28T02:43:52.565Z,40.85
2022-08-28T02:46:19.582Z,41.97
2022-08-28T02:48:47.129Z,42.78
2022-08-28T02:51:14.912Z,40.53
2022-08-28T02:53:42.934Z,42.35
2022-08-28T02:56:26.148Z,41.88
2022-08-28T02:59:06.529Z,41.70
2022-08-28T03:01:34.450Z,42.85
2022-08-28T03:04:05.623Z,40.33
2022-08-28T03:06:33.525Z,42.85
2022-08-28T03:09:00.670Z,43.83
2022-08-28T03:11:27.748Z,41.97
2022-08-28T03:13:55.710Z,40.78
2022-08-28T03:16:22.941Z,41.53
2022-08-28T03:18:49.976Z,43.92
2022-08-28T03:21:17.487Z,45.42
2022-08-28T03:23:44.528Z,43.75
2022-08-28T03:26:19.081Z,41.25
2022-08-28T03:28:54.285Z,41.13
2022-08-28T03:31:25.342Z,41.38
2022-08-28T03:33:53.379Z,39.70
2022-08-28T03:36:28.024Z,41.85
2022-08-28T03:38:57.994Z,41.42
2022-08-28T03:41:29.311Z,42.03
2022-08-28T03:43:58.680Z,42.28
2022-08-28T03:46:27.759Z,41.75
2022-08-28T03:48:55.713Z,39.75
2022-08-28T03:51:29.971Z,40.78
2022-08-28T03:53:59.332Z,39.08
2022-08-28T03:56:28.485Z,40.42
2022-08-28T03:58:59.449Z,38.85
2022-08-28T04:01:26.714Z,37.67
2022-08-28T04:03:54.017Z,39.00
2022-08-28T04:06:21.098Z,36.92
2022-08-28T04:08:48.636Z,36.55
2022-08-28T04:11:15.790Z,36.53
2022-08-28T04:13:42.788Z,39.38
2022-08-28T04:16:13.814Z,36.75
2022-08-28T04:18:43.319Z,38.50
2022-08-28T04:21:17.936Z,36.40
2022-08-28T04:23:47.622Z,35.75
2022-08-28T04:26:18.663Z,37.35
2022-08-28T04:28:47.058Z,36.67
2022-08-28T04:31:15.108Z,33.53
2022-08-28T04:33:42.506Z,34.95
2022-08-28T04:36:15.786Z,39.33
2022-08-28T04:38:44.242Z,37.17
2022-08-28T04:41:13.744Z,35.92
2022-08-28T04:43:40.950Z,35.22
2022-08-28T04:46:09.185Z,39.00
2022-08-28T04:48:36.673Z,40.20
2022-08-28T04:51:07.327Z,40.75
2022-08-28T04:53:34.711Z,38.97
2022-08-28T04:56:04.973Z,40.65
2022-08-28T04:58:34.225Z,41.08
2022-08-28T05:01:11.410Z,38.50
2022-08-28T05:03:39.307Z,41.20
2022-08-28T05:06:06.725Z,38.67
2022-08-28T05:08:34.404Z,41.88
2022-08-28T05:11:22.083Z,41.70
2022-08-28T05:14:04.654Z,39.92
2022-08-28T05:16:33.290Z,38.60
2022-08-28T05:19:01.360Z,38.65
2022-08-28T05:21:28.792Z,40.90
2022-08-28T05:23:57.656Z,45.35
2022-08-28T05:26:26.800Z,46.03
2022-08-28T05:28:56.614Z,44.22
2022-08-28T05:31:24.597Z,45.85
2022-08-28T05:33:52.948Z,44.45
2022-08-28T05:36:23.386Z,46.05
2022-08-28T05:38:57.350Z,44.45
2022-08-28T05:41:27.310Z,46.15
2022-08-28T05:43:54.388Z,46.88
2022-08-28T05:46:23.300Z,45.95
2022-08-28T05:48:50.481Z,45.30
2022-08-28T05:51:20.421Z,42.65
2022-08-28T05:53:50.460Z,44.40
2022-08-28T05:56:22.225Z,44.85
2022-08-28T05:58:50.283Z,45.97
2022-08-28T06:01:20.644Z,46.05
2022-08-28T06:04:00.345Z,45.42
2022-08-28T06:06:30.042Z,42.80
2022-08-28T06:09:02.099Z,45.60
2022-08-28T06:11:30.687Z,44.45
2022-08-28T06:14:02.405Z,46.65
2022-08-28T06:16:31.185Z,43.92
2022-08-28T06:18:58.766Z,43.72
2022-08-28T06:21:26.226Z,43.35
2022-08-28T06:23:53.298Z,44.80
2022-08-28T06:26:20.948Z,45.33
2022-08-28T06:28:47.969Z,44.22
2022-08-28T06:31:24.382Z,42.88
2022-08-28T06:33:54.383Z,44.63
2022-08-28T06:36:22.179Z,42.22
2022-08-28T06:38:49.247Z,44.45
2022-08-28T06:41:16.749Z,44.92
2022-08-28T06:43:43.719Z,45.58
2022-08-28T06:46:10.822Z,44.33
2022-08-28T06:48:38.151Z,47.00
2022-08-28T06:51:10.814Z,43.67
2022-08-28T06:53:40.313Z,44.65
2022-08-28T06:56:26.618Z,43.78
2022-08-28T06:58:56.939Z,44.20
2022-08-28T07:01:29.477Z,44.30
2022-08-28T07:04:00.776Z,43.60
2022-08-28T07:06:30.995Z,41.67
2022-08-28T07:08:57.970Z,39.17
2022-08-28T07:11:28.997Z,38.00
2022-08-28T07:13:57.551Z,37.25
2022-08-28T07:16:28.209Z,35.90
2022-08-28T07:18:55.708Z,37.00
2022-08-28T07:21:22.884Z,38.03
2022-08-28T07:23:50.357Z,36.85
2022-08-28T07:26:22.627Z,34.72
2022-08-28T07:28:51.191Z,35.17
2022-08-28T07:31:22.610Z,35.60
2022-08-28T07:33:53.529Z,34.25
2022-08-28T07:36:29.388Z,31.90
2022-08-28T07:38:59.581Z,31.02
2022-08-28T07:41:30.440Z,35.15
2022-08-28T07:44:16.513Z,35.88
2022-08-28T07:46:44.670Z,39.30
2022-08-28T07:49:13.543Z,35.63
2022-08-28T07:51:40.654Z,40.65
2022-08-28T07:54:11.205Z,38.05
2022-08-28T07:56:44.334Z,36.42
2022-08-28T07:59:12.090Z,37.25
2022-08-28T08:01:46.901Z,35.80
2022-08-28T08:04:18.566Z,36.50
2022-08-28T08:06:45.766Z,34.33
2022-08-28T08:09:15.875Z,35.92
2022-08-28T08:11:43.216Z,34.85
2022-08-28T08:14:12.095Z,35.10
2022-08-28T08:16:43.637Z,37.58
2022-08-28T08:19:15.478Z,39.22
2022-08-28T08:21:44.584Z,35.50
2022-08-28T08:24:19.766Z,36.78
2022-08-28T08:26:56.527Z,36.75
2022-08-28T08:29:35.981Z,34.47
2022-08-28T08:32:08.166Z,36.75
2022-08-28T08:34:38.887Z,36.45
2022-08-28T08:37:06.712Z,36.25
2022-08-28T08:39:35.300Z,34.28
2022-08-28T08:42:05.206Z,36.40
2022-08-28T08:44:45.583Z,34.50
2022-08-28T08:47:22.542Z,33.45
2022-08-28T08:49:55.351Z,32.80
2022-08-28T08:52:22.466Z,31.35
2022-08-28T08:55:02.595Z,29.67
2022-08-28T08:57:32.075Z,29.73
2022-08-28T09:00:00.061Z,29.33
2022-08-28T09:02:33.817Z,28.98
2022-08-28T09:05:12.611Z,28.60
2022-08-28T09:08:02.764Z,29.50
2022-08-28T09:10:39.842Z,30.33
2022-08-28T09:13:11.550Z,29.17
2022-08-28T09:15:49.958Z,27.80
2022-08-28T09:18:33.568Z,26.55
2022-08-28T09:21:00.700Z,26.10
2022-08-28T09:23:29.865Z,26.52
2022-08-28T09:26:02.476Z,24.45
2022-08-28T09:28:29.589Z,26.80
2022-08-28T09:31:00.943Z,27.52
2022-08-28T09:33:56.654Z,25.27
2022-08-28T09:36:38.979Z,24.65
2022-08-28T09:39:18.491Z,25.45
2022-08-28T09:42:15.712Z,25.98
2022-08-28T09:44:51.287Z,25.85
2022-08-28T09:47:36.873Z,24.98
2022-08-28T09:50:34.761Z,21.52
2022-08-28T09:53:11.772Z,24.40
2022-08-28T09:55:57.935Z,25.25
2022-08-28T09:58:32.942Z,24.45
2022-08-28T10:01:27.379Z,24.60
2022-08-28T10:04:38.171Z,25.27
2022-08-28T10:07:24.717Z,26.90
2022-08-28T10:10:06.540Z,29.77
2022-08-28T10:13:01.540Z,29.45
2022-08-28T10:15:49.626Z,22.45
2022-08-28T10:18:35.609Z,20.90
2022-08-28T10:21:05.455Z,23.43
2022-08-28T10:23:46.271Z,25.35
2022-08-28T10:26:25.322Z,22.13
2022-08-28T10:29:08.080Z,25.63
2022-08-28T10:31:58.062Z,24.27
2022-08-28T10:34:54.840Z,21.80
2022-08-28T10:38:02.927Z,23.75
2022-08-28T10:40:36.346Z,22.10
2022-08-28T10:43:14.843Z,23.60
2022-08-28T10:45:43.527Z,21.08
2022-08-28T10:48:22.625Z,22.73
2022-08-28T10:50:56.297Z,21.30
2022-08-28T10:53:38.668Z,19.35
2022-08-28T10:56:10.911Z,20.13
2022-08-28T10:58:41.273Z,20.35
2022-08-28T11:01:33.339Z,18.15
2022-08-28T11:04:03.038Z,17.05
2022-08-28T11:06:42.257Z,17.67
2022-08-28T11:09:28.007Z,15.40
2022-08-28T11:12:28.703Z,14.93
2022-08-28T11:14:55.941Z,13.65
2022-08-28T11:17:23.054Z,13.52
2022-08-28T11:19:54.398Z,14.60
2022-08-28T11:22:25.820Z,12.82
2022-08-28T11:25:13.202Z,11.73
2022-08-28T11:28:00.827Z,11.88
2022-08-28T11:30:35.682Z,11.77
2022-08-28T11:33:06.828Z,11.23
2022-08-28T11:35:42.305Z,11.40
2022-08-28T11:38:10.404Z,12.45
2022-08-28T11:40:50.017Z,14.68
2022-08-28T11:43:18.916Z,12.23
2022-08-28T11:45:47.076Z,12.75
2022-08-28T11:48:36.357Z,11.35
2022-08-28T11:51:23.311Z,11.48
2022-08-28T11:54:20.063Z,11.65
2022-08-28T11:56:53.707Z,12.57
2022-08-28T11:59:35.748Z,12.02
2022-08-28T12:02:32.125Z,12.48
2022-08-28T12:04:59.512Z,12.17
2022-08-28T12:07:34.890Z,13.38
2022-08-28T12:10:05.188Z,15.73
2022-08-28T12:12:47.471Z,13.57
2022-08-28T12:15:41.860Z,14.27
2022-08-28T12:18:12.081Z,14.63
2022-08-28T12:20:51.413Z,14.30
2022-08-28T12:23:24.193Z,13.55
2022-08-28T12:26:19.107Z,14.80
2022-08-28T12:28:54.828Z,15.40
2022-08-28T12:32:15.010Z,13.27
2022-08-28T12:34:45.480Z,8.60
2022-08-28T12:37:30.807Z,7.93
2022-08-28T12:43:04.057Z,8.95
2022-08-28T12:45:38.391Z,8.57
2022-08-28T12:48:33.652Z,9.18
2022-08-28T12:51:13.416Z,9.10
2022-08-28T12:53:46.571Z,8.98
2022-08-28T12:56:17.991Z,10.07
2022-08-28T12:58:46.351Z,10.35
2022-08-28T13:01:31.808Z,11.07
2022-08-28T13:04:01.638Z,9.10
2022-08-28T13:06:34.055Z,8.82
2022-08-28T13:09:02.294Z,8.07
2022-08-28T13:11:45.904Z,7.82
2022-08-28T13:14:13.035Z,7.43
2022-08-28T13:16:43.870Z,7.03
2022-08-28T13:19:29.124Z,6.57
2022-08-28T13:22:00.609Z,6.35
2022-08-28T13:24:44.352Z,7.03
2022-08-28T13:27:19.386Z,7.88
2022-08-28T13:30:14.025Z,7.70
2022-08-28T13:32:40.998Z,7.03
2022-08-28T13:35:28.288Z,7.80
2022-08-28T13:37:58.084Z,8.60
2022-08-28T13:43:23.091Z,7.60
2022-08-28T13:45:50.653Z,7.22
2022-08-28T13:48:25.755Z,7.63
2022-08-28T13:50:59.055Z,8.00
2022-08-28T13:53:26.075Z,9.18
2022-08-28T13:55:53.396Z,8.13
2022-08-28T13:58:20.424Z,9.65
2022-08-28T14:00:50.682Z,8.73
2022-08-28T14:03:38.014Z,10.90
2022-08-28T14:06:14.261Z,9.38
2022-08-28T14:11:12.679Z,8.30
2022-08-28T14:13:47.020Z,8.93
2022-08-28T14:16:25.547Z,8.00
2022-08-28T14:18:53.346Z,8.13
2022-08-28T14:21:21.756Z,8.48
2022-08-28T14:23:49.343Z,9.05
2022-08-28T14:26:16.502Z,8.80
2022-08-28T14:28:43.816Z,9.13
2022-08-28T14:31:14.384Z,8.95
2022-08-28T14:33:45.113Z,9.52
2022-08-28T14:36:26.439Z,9.27
2022-08-28T14:38:55.379Z,12.20
2022-08-28T14:41:23.980Z,10.82
2022-08-28T14:43:52.236Z,11.98
2022-08-28T14:46:28.703Z,10.60
2022-08-28T14:49:09.133Z,12.27
2022-08-28T14:51:38.291Z,14.25
2022-08-28T14:54:06.256Z,13.32
2022-08-28T14:56:33.497Z,13.77
2022-08-28T14:59:01.758Z,14.50
2022-08-28T15:01:36.657Z,15.32
2022-08-28T15:04:11.199Z,14.82
2022-08-28T15:06:38.993Z,15.32
2022-08-28T15:09:06.255Z,15.95
2022-08-28T15:11:35.459Z,15.88
2022-08-28T15:14:02.418Z,16.02
2022-08-28T15:16:32.630Z,16.08
2022-08-28T15:19:00.991Z,17.02
2022-08-28T15:21:35.491Z,15.82
2022-08-28T15:24:05.341Z,16.20
2022-08-28T15:26:32.858Z,15.40
2022-08-28T15:29:03.814Z,16.30
2022-08-28T15:31:33.388Z,17.23
2022-08-28T15:34:13.641Z,16.30
2022-08-28T15:36:42.426Z,17.00
2022-08-28T15:39:28.934Z,15.93
2022-08-28T15:41:56.513Z,16.70
2022-08-28T15:44:23.509Z,16.42
2022-08-28T15:46:53.917Z,16.73
2022-08-28T15:49:23.728Z,17.08
2022-08-28T15:51:51.077Z,16.50
2022-08-28T15:54:18.690Z,17.60
2022-08-28T15:56:46.346Z,17.58
2022-08-28T15:59:17.792Z,16.92
2022-08-28T16:01:45.675Z,18.00
2022-08-28T16:04:13.707Z,17.35
2022-08-28T16:06:42.012Z,17.27
2022-08-28T16:09:10.160Z,16.60
2022-08-28T16:11:38.711Z,16.67
2022-08-28T16:14:07.649Z,16.27
2022-08-28T16:16:34.706Z,17.10
2022-08-28T16:19:01.896Z,16.65
2022-08-28T16:21:29.294Z,16.58
2022-08-28T16:23:56.367Z,17.90
2022-08-28T16:26:24.320Z,17.77
2022-08-28T16:28:51.381Z,16.95
2022-08-28T16:31:20.409Z,16.92
2022-08-28T16:33:49.788Z,16.50
2022-08-28T16:36:18.703Z,17.77
2022-08-28T16:38:49.681Z,17.15
2022-08-28T16:41:27.614Z,18.33
2022-08-28T16:43:56.274Z,19.15
2022-08-28T16:46:26.802Z,22.45
2022-08-28T16:48:54.606Z,19.88
2022-08-28T16:51:22.130Z,19.45
2022-08-28T16:53:49.127Z,25.35
2022-08-28T16:56:18.008Z,21.98
2022-08-28T16:58:45.994Z,22.08
2022-08-28T17:01:13.721Z,24.23
2022-08-28T17:03:42.400Z,23.45
2022-08-28T17:06:21.741Z,23.65
2022-08-28T17:08:51.335Z,25.88
2022-08-28T17:11:21.191Z,28.00
2022-08-28T17:13:51.179Z,30.63
2022-08-28T17:16:19.545Z,31.20
2022-08-28T17:18:51.979Z,34.67
2022-08-28T17:21:40.385Z,33.75
2022-08-28T17:24:08.752Z,37.75
2022-08-28T17:26:35.892Z,39.28
2022-08-28T17:29:03.941Z,40.80
2022-08-28T17:31:31.550Z,45.35
2022-08-28T17:33:58.803Z,46.88
2022-08-28T17:36:34.085Z,54.95
2022-08-28T17:39:04.245Z,54.05
2022-08-28T17:41:33.634Z,53.50
2022-08-28T17:44:02.013Z,56.35
2022-08-28T17:46:31.817Z,59.67
2022-08-28T17:49:03.413Z,68.57
2022-08-28T17:51:42.729Z,64.57
2022-08-28T17:54:21.693Z,67.38
2022-08-28T17:56:49.912Z,67.30
2022-08-28T17:59:17.556Z,72.00
2022-08-28T18:01:46.960Z,72.40
2022-08-28T18:04:17.964Z,68.28
2022-08-28T18:06:47.874Z,69.82
2022-08-28T18:09:15.220Z,72.28
2022-08-28T18:11:43.525Z,70.43
2022-08-28T18:14:11.195Z,68.20
2022-08-28T18:16:38.778Z,69.55
2022-08-28T18:19:08.960Z,69.07
2022-08-28T18:21:37.632Z,69.95
2022-08-28T18:24:05.243Z,66.68
2022-08-28T18:26:32.393Z,67.93
2022-08-28T18:28:59.576Z,66.30
2022-08-28T18:31:26.855Z,68.97
2022-08-28T18:33:54.589Z,67.95
2022-08-28T18:36:23.483Z,65.82
2022-08-28T18:38:51.094Z,69.38
2022-08-28T18:41:20.538Z,63.60
2022-08-28T18:43:48.081Z,62.13
2022-08-28T18:46:15.234Z,61.85
2022-08-28T18:48:42.956Z,61.75
2022-08-28T18:51:12.242Z,61.78
2022-08-28T18:53:42.365Z,64.13
2022-08-28T18:56:12.394Z,58.25
2022-08-28T18:58:41.154Z,58.97
2022-08-28T19:01:09.719Z,60.53
2022-08-28T19:03:37.391Z,57.75
2022-08-28T19:06:06.432Z,55.97
2022-08-28T19:08:36.851Z,52.65
2022-08-28T19:11:10.116Z,52.50
2022-08-28T19:13:37.393Z,51.33
2022-08-28T19:16:05.382Z,49.72
2022-08-28T19:18:32.572Z,45.70
2022-08-28T19:21:16.332Z,44.92
2022-08-28T19:23:44.585Z,42.30
2022-08-28T19:26:25.312Z,41.38
2022-08-28T19:28:53.750Z,38.50
2022-08-28T19:31:22.591Z,38.08
2022-08-28T19:33:49.711Z,37.08
2022-08-28T19:36:18.670Z,37.97
2022-08-28T19:38:45.904Z,38.13
2022-08-28T19:41:13.375Z,35.17
2022-08-28T19:43:42.858Z,36.15
2022-08-28T19:46:19.601Z,35.10
2022-08-28T19:48:52.543Z,34.65
2022-08-28T19:51:23.906Z,36.35
2022-08-28T19:53:57.182Z,35.03
2022-08-28T19:56:30.003Z,34.35
2022-08-28T19:58:59.400Z,31.88
2022-08-28T20:01:32.958Z,33.47
2022-08-28T20:04:01.421Z,32.85
2022-08-28T20:06:32.282Z,31.77
2022-08-28T20:09:00.495Z,31.77
2022-08-28T20:11:30.160Z,32.45
2022-08-28T20:14:04.430Z,32.45
2022-08-28T20:16:35.836Z,32.08
2022-08-28T20:19:07.899Z,31.33
2022-08-28T20:21:37.126Z,31.98
2022-08-28T20:24:11.950Z,31.00
2022-08-28T20:26:40.212Z,32.10
2022-08-28T20:29:08.740Z,31.27
2022-08-28T20:31:40.565Z,31.27
2022-08-28T20:34:09.769Z,32.72
2022-08-28T20:36:37.252Z,31.52
2022-08-28T20:39:07.260Z,33.72
2022-08-28T20:41:34.703Z,33.45
2022-08-28T20:44:05.070Z,34.58
2022-08-28T20:46:38.523Z,32.33
2022-08-28T20:49:12.556Z,36.15
2022-08-28T20:51:56.556Z,35.80
2022-08-28T20:54:38.873Z,34.55
2022-08-28T20:57:12.731Z,33.40
2022-08-28T20:59:42.241Z,34.83
2022-08-28T21:02:17.225Z,32.95
2022-08-28T21:08:15.493Z,31.85
2022-08-28T21:10:45.053Z,33.60
2022-08-28T21:13:13.103Z,32.30
2022-08-28T21:15:41.163Z,33.70
2022-08-28T21:18:10.077Z,33.97
2022-08-28T21:20:39.257Z,34.05
2022-08-28T21:23:07.114Z,31.55
2022-08-28T21:25:34.187Z,32.67
2022-08-28T21:28:04.161Z,31.55
2022-08-28T21:30:31.912Z,31.30
2022-08-28T21:32:59.141Z,33.60
2022-08-28T21:35:26.368Z,31.98
2022-08-28T21:37:53.550Z,32.47
2022-08-28T21:40:20.757Z,33.40
2022-08-28T21:42:47.801Z,32.60
2022-08-28T21:45:14.950Z,33.20
2022-08-28T21:47:42.660Z,34.20
2022-08-28T21:50:10.998Z,32.95
2022-08-28T21:52:38.190Z,33.85
2022-08-28T21:55:09.606Z,32.50
2022-08-28T21:57:36.855Z,32.28
2022-08-28T22:00:09.425Z,33.13
2022-08-28T22:02:36.497Z,34.50
2022-08-28T22:05:04.033Z,34.88
2022-08-28T22:07:31.226Z,35.00
2022-08-28T22:09:58.328Z,34.72
2022-08-28T22:12:25.388Z,34.65
2022-08-28T22:14:52.526Z,34.08
2022-08-28T22:17:19.533Z,36.83
2022-08-28T22:19:46.954Z,36.63
2022-08-28T22:22:53.300Z,36.13
2022-08-28T22:25:20.400Z,33.83
2022-08-28T22:27:47.362Z,35.10
2022-08-28T22:30:14.533Z,36.50
2022-08-28T22:32:41.523Z,36.42
2022-08-28T22:35:10.790Z,36.42
2022-08-28T22:37:38.151Z,36.78
2022-08-28T22:40:13.136Z,36.42
2022-08-28T22:42:41.321Z,35.20
2022-08-28T22:45:09.699Z,34.65
2022-08-28T22:47:37.014Z,36.58
2022-08-28T22:50:04.810Z,35.85
2022-08-28T22:52:32.505Z,36.88
2022-08-28T22:54:59.571Z,37.58
2022-08-28T22:57:26.871Z,37.60
2022-08-28T22:59:54.094Z,36.53
2022-08-28T23:02:21.826Z,37.20
2022-08-28T23:04:54.559Z,37.78
2022-08-28T23:07:22.421Z,36.80
2022-08-28T23:09:49.505Z,37.08
2022-08-28T23:12:16.828Z,37.67
2022-08-28T23:14:48.219Z,38.35
2022-08-28T23:17:17.013Z,39.47
2022-08-28T23:19:44.384Z,39.40
2022-08-28T23:22:13.614Z,38.15
2022-08-28T23:24:40.707Z,38.15
2022-08-28T23:27:34.317Z,39.45
2022-08-28T23:29:55.944Z,38.28
2022-08-28T23:32:23.258Z,39.40
2022-08-28T23:34:51.216Z,39.38
2022-08-28T23:37:18.288Z,37.00
2022-08-28T23:39:45.457Z,37.17
2022-08-28T23:42:12.463Z,37.50
2022-08-28T23:44:39.438Z,38.33
2022-08-28T23:47:06.581Z,37.38
2022-08-28T23:49:34.345Z,37.08
2022-08-28T23:52:10.112Z,37.30
2022-08-28T23:54:37.266Z,37.17
2022-08-28T23:57:05.409Z,37.40
2022-08-28T23:59:32.810Z,34.83
